Airfield :
LOGIN :

Register | Disclaimer

   EN    FR    IT 

 










Legend :    VFR   Marginal VFR   IFR   Intensive IFR   Very Intensive IFR
Visi :
Ceiling :
>= 8 km
>= 3000ft
5 to 8 km
1000 to 3000 ft
1500m to 5 km
500 to 1000 ft
800 to 1500m
200 to 500 ft
< 800m
< 200 ft
Symbols :   Thunderstorms  Fog  Heavy snow  Heavy precipitations  Wind > 20 kt
SIGMETs :     Misc.  Thunderstorms  Icing  Turbulence  Mountain Waves  Volcanic Ashes







- Airport Elevation : 0 ft


ETEB - Ansbach Army Heliport

CURRENT METAR :
  • 170658Z AUTO 16003KT 9999 CLR 19/16 A3012 RMK AO2 SLP194 T01860156

EXPIRED METARs :
  • 170558Z AUTO 14003KT 9999 CLR 17/15 A3012 RMK AO2 SLP196 T01690154 10181 20155 55000
  • 170458Z AUTO 06004KT 8000 BR CLR 16/15 A3012 RMK AO2 SLP196 T01570149

TAF TAF ETEB
Valid from the 17 at 05:00 until the 18 at 11:00 UTC


170511Z 1705/1811 VRB06KT 9999 SCT030 QNH3009INS
TEMPO 1705/1708 5000 BR
BECMG 1708/1709 24009KT 9999 BKN030 QNH3007INS
BECMG 1711/1712 24009KT 9999 SCT050 SCT100 QNH3000INS TX25/1712Z TN12/1705Z
No reported NOTAMs for that airfield.



MET'MAP, your aeronautical weather chart ! - Copyright ORBIFLY December 2007 - Disclaimer

ORBIFLY MET'MAP TEAM :

Programming & Development : Alexandra Zaïnal
Concept & Development : Baudouin d'Aumeries
Co-Development & Prog : Marc-Olivier Méhu
Technical & hardware support : Manuel Goepfert

Contact : metmap@orbifly.com




SOURCES & CREDITS :

   NOAA